Corona Range LRC

2021-03-02 06:15:00

  • imperial
Date Time Air Temperature Relative Humidity Dewpoint Windchill Heat Index Wind Speed Wind Dir. Rain Solar Radiation Soil Temperature
2m 2m 3m 3m 10cm
US/Mountain F % F F F MPH deg in MJ/m^2 F
max avg avg
2021-03-01 06:30:00 23.9 46.4 6.3 18.7 23.9 4.0 4.6 3.8 1.0 284.1 0.00 0.0000000 38.1
2021-03-01 06:35:00 23.6 46.9 6.3 18.3 23.6 4.0 4.7 3.9 273.0 276.4 0.00 0.0000000 38.0
2021-03-01 06:40:00 23.3 47.7 6.3 18.4 23.3 3.7 4.9 4.1 212.8 254.4 0.00 0.0000000 38.0
2021-03-01 06:45:00 23.1 47.8 6.3 23.1 23.1 3.0 4.9 3.8 311.1 271.2 0.00 0.0004027 37.9
2021-03-01 06:50:00 23.2 47.8 6.3 18.3 23.2 3.7 4.6 3.8 276.6 277.5 0.00 0.0023864 37.9
2021-03-01 06:55:00 23.0 48.1 6.3 17.6 23.0 4.0 4.4 3.6 278.4 258.0 0.00 0.0036331 37.8
2021-03-01 07:00:00 22.9 48.0 6.1 17.7 22.9 3.8 4.4 3.7 221.4 252.9 0.00 0.0036690 37.8
2021-03-01 07:05:00 22.9 48.5 6.3 17.7 22.9 3.8 4.4 3.8 278.9 264.2 0.00 0.0041895 37.8
2021-03-01 07:10:00 22.8 48.3 6.2 17.6 22.8 3.8 4.6 4.0 274.1 258.9 0.00 0.0053824 37.7
2021-03-01 07:15:00 22.7 48.5 6.2 16.6 22.7 4.6 5.1 4.2 250.4 256.3 0.00 0.0069809 37.7
2021-03-01 07:20:00 23.0 48.1 6.3 18.1 23.0 3.7 5.1 4.4 212.5 234.5 0.00 0.0092463 37.6
2021-03-01 07:25:00 23.3 47.7 6.4 18.2 23.3 3.8 4.0 3.4 259.7 225.5 0.00 0.0095381 37.6
2021-03-01 07:30:00 23.8 47.0 6.5 19.0 23.8 3.7 4.9 4.0 228.4 234.4 0.00 0.0115044 37.6
2021-03-01 07:35:00 24.3 45.7 6.3 19.4 24.3 3.8 5.1 4.1 208.7 226.5 0.00 0.0127350 37.5
2021-03-01 07:40:00 24.9 44.4 6.2 18.9 24.9 4.7 5.3 4.5 233.0 231.8 0.00 0.0139449 37.5
2021-03-01 07:45:00 25.4 43.4 6.1 19.3 25.4 4.9 5.8 4.5 245.0 234.6 0.00 0.0167887 37.4
2021-03-01 07:50:00 26.0 42.8 6.4 19.9 26.0 5.1 5.1 4.5 251.5 240.6 0.00 0.0200831 37.4
2021-03-01 07:55:00 26.6 42.4 6.8 20.8 26.6 4.9 6.2 4.6 248.9 248.0 0.00 0.0241424 37.3
2021-03-01 08:00:00 27.0 40.6 6.2 20.4 27.0 5.8 6.7 5.4 271.2 266.2 0.00 0.0288691 37.3
2021-03-01 08:05:00 27.6 38.9 5.8 21.9 27.6 4.9 6.0 4.6 247.9 255.0 0.00 0.0335695 37.3
2021-03-01 08:10:00 28.3 37.7 5.7 22.6 28.3 5.1 5.8 4.9 246.5 250.1 0.00 0.0414958 37.2
2021-03-01 08:15:00 28.9 37.2 5.9 28.9 28.9 3.0 5.5 4.3 250.5 249.1 0.00 0.0481488 37.2
2021-03-01 08:20:00 30.3 36.3 6.7 26.9 30.3 3.3 4.0 3.2 269.8 256.8 0.00 0.0544886 37.2
2021-03-01 08:25:00 30.6 35.0 6.2 26.9 30.6 3.7 5.5 3.6 230.7 243.9 0.00 0.0537516 37.1
2021-03-01 08:30:00 30.9 35.1 6.5 27.4 30.9 3.5 4.4 3.3 247.7 256.3 0.00 0.0611701 37.1
2021-03-01 08:35:00 31.7 33.7 6.3 31.7 31.7 1.9 4.9 3.3 270.2 243.9 0.00 0.0662751 37.1
2021-03-01 08:40:00 32.5 32.4 6.1 32.5 32.5 1.9 4.6 2.8 225.8 225.4 0.00 0.0704469 37.1
2021-03-01 08:45:00 33.2 32.0 6.5 33.2 33.2 2.8 4.7 3.0 206.0 193.3 0.00 0.0764542 37.0
2021-03-01 08:50:00 33.3 31.7 6.4 33.3 33.3 2.1 6.0 4.2 63.6 148.0 0.00 0.0836346 37.0
2021-03-01 08:55:00 33.7 31.0 6.2 33.7 33.7 1.3 4.4 2.7 245.4 54.0 0.00 0.0895560 37.0
2021-03-01 09:00:00 35.7 28.5 6.1 31.2 35.7 5.3 5.3 2.1 141.1 115.0 0.00 0.0930605 37.0
2021-03-01 09:05:00 35.3 29.1 6.3 31.7 35.3 4.2 6.2 4.3 132.9 124.4 0.00 0.0931905 37.0
2021-03-01 09:10:00 34.9 29.2 6.0 32.4 34.9 3.1 6.5 3.3 282.9 72.7 0.00 0.0961732 37.1
2021-03-01 09:15:00 35.9 28.4 6.3 33.5 35.9 3.1 4.6 2.5 112.0 90.7 0.00 0.0972642 37.1
2021-03-01 09:20:00 35.7 28.0 5.8 35.7 35.7 2.8 6.3 4.0 70.3 99.6 0.00 0.0989663 37.1
2021-03-01 09:25:00 35.4 28.4 5.8 31.1 35.4 4.9 5.6 3.1 199.4 105.5 0.00 0.0930404 37.1
2021-03-01 09:30:00 35.3 28.5 5.8 35.3 35.3 2.6 6.0 3.5 88.8 199.9 0.00 0.0942895 37.2
2021-03-01 09:35:00 36.0 29.2 7.0 31.3 36.0 5.6 7.4 4.7 118.4 151.4 0.00 0.1029693 37.2
2021-03-01 09:40:00 35.8 29.1 6.7 35.8 35.8 2.4 7.2 4.5 182.1 119.1 0.00 0.1084086 37.2
2021-03-01 09:45:00 36.3 27.9 6.2 36.3 36.3 3.0 6.2 4.3 235.4 189.1 0.00 0.1116195 37.3
2021-03-01 09:50:00 35.8 28.1 6.0 35.8 35.8 1.9 6.2 3.6 211.3 240.5 0.00 0.1125294 37.3
2021-03-01 09:55:00 36.6 26.4 5.3 36.6 36.6 3.0 4.2 2.7 242.4 292.0 0.00 0.1153407 37.4
2021-03-01 10:00:00 37.6 25.3 5.1 34.0 37.6 4.6 5.3 3.6 233.9 229.3 0.00 0.1176575 37.5
2021-03-01 10:05:00 37.2 26.5 5.8 33.2 37.2 4.9 6.0 4.1 306.1 297.0 0.00 0.1202710 37.5
2021-03-01 10:10:00 38.0 25.2 5.5 33.5 38.0 5.8 5.8 2.3 292.9 44.8 0.00 0.1211299 37.6
2021-03-01 10:15:00 37.9 26.8 6.7 35.6 37.9 3.3 5.6 3.8 206.9 231.2 0.00 0.1248551 37.7
2021-03-01 10:20:00 38.2 25.4 5.8 35.6 38.2 3.7 6.2 4.4 294.4 296.6 0.00 0.1295513 37.7
2021-03-01 10:25:00 38.5 25.4 6.0 34.4 38.5 5.5 5.8 4.2 315.0 269.5 0.00 0.1325284 37.8
2021-03-01 10:30:00 37.8 25.9 5.9 35.7 37.8 3.1 6.2 4.3 284.1 302.9 0.00 0.1321241 37.9
2021-03-01 10:35:00 39.1 24.5 5.8 36.1 39.1 4.2 5.3 3.5 241.7 288.9 0.00 0.1336045 38.0
2021-03-01 10:40:00 39.4 24.3 5.8 39.4 39.4 2.6 4.4 3.1 111.7 141.7 0.00 0.1259277 38.1
2021-03-01 10:45:00 39.6 23.5 5.3 35.0 39.6 6.3 6.7 3.8 158.4 146.3 0.00 0.1209902 38.2
2021-03-01 10:50:00 38.6 25.0 5.8 35.3 38.6 4.4 6.5 4.6 99.4 112.4 0.00 0.0882065 38.3
2021-03-01 10:55:00 38.8 24.5 5.5 36.2 38.8 3.7 8.7 5.1 313.5 65.9 0.00 0.1345107 38.4
2021-03-01 11:00:00 39.3 24.2 5.6 39.3 39.3 1.9 3.7 2.6 344.9 285.6 0.00 0.1152317 38.5
2021-03-01 11:05:00 40.6 22.7 5.3 36.7 40.6 5.6 5.6 2.7 108.0 20.4 0.00 0.1357841 38.7
2021-03-01 11:10:00 40.2 23.2 5.5 36.1 40.2 5.8 8.0 5.7 125.2 110.9 0.00 0.1403982 38.8
2021-03-01 11:15:00 40.1 23.3 5.5 35.8 40.1 6.0 7.6 5.3 103.2 127.1 0.00 0.1421059 38.9
2021-03-01 11:20:00 40.5 22.9 5.4 36.9 40.5 5.1 6.2 3.7 170.5 202.2 0.00 0.1459432 39.1
2021-03-01 11:25:00 40.8 22.6 5.4 36.3 40.8 6.5 6.9 5.3 133.8 153.9 0.00 0.1441495 39.2
2021-03-01 11:30:00 40.7 22.8 5.5 35.8 40.7 7.2 9.4 5.4 133.5 90.9 0.00 0.1458853 39.4
2021-03-01 11:35:00 39.9 23.3 5.4 37.3 39.9 3.8 8.8 6.0 164.9 141.1 0.00 0.1456176 39.5
2021-03-01 11:40:00 40.4 22.8 5.3 35.9 40.4 6.5 7.8 4.8 145.1 149.7 0.00 0.1471093 39.7
2021-03-01 11:45:00 40.8 22.8 5.5 40.8 40.8 2.4 9.0 5.4 159.4 187.9 0.00 0.1471828 39.8
2021-03-01 11:50:00 40.8 22.0 4.8 38.5 40.8 3.7 8.8 6.6 103.6 162.1 0.00 0.1485933 40.0
2021-03-01 11:55:00 41.0 21.7 4.7 41.0 41.0 2.6 8.5 4.3 122.6 196.3 0.00 0.1503466 40.1
2021-03-01 12:00:00 42.0 22.0 5.9 38.5 42.0 5.5 8.3 5.1 144.5 92.4 0.00 0.1560071 40.3
2021-03-01 12:05:00 42.2 21.1 5.1 37.7 42.2 7.2 9.2 6.3 91.7 114.4 0.00 0.1614851 40.5
2021-03-01 12:10:00 41.9 21.7 5.5 40.4 41.9 3.1 9.9 6.5 235.6 128.1 0.00 0.1681794 40.7
2021-03-01 12:15:00 41.8 22.2 5.9 38.1 41.8 5.6 10.3 6.3 153.2 152.7 0.00 0.1581855 40.8
2021-03-01 12:20:00 42.1 20.6 4.5 42.1 42.1 2.8 8.0 4.2 182.4 114.5 0.00 0.1586862 41.0
2021-03-01 12:25:00 42.1 20.9 4.8 42.1 42.1 3.0 6.5 3.8 149.3 119.7 0.00 0.1520741 41.2
2021-03-01 12:30:00 42.3 20.7 4.8 42.3 42.3 2.2 5.8 3.5 30.4 77.0 0.00 0.1560073 41.4
2021-03-01 12:35:00 42.5 21.8 6.1 40.7 42.5 3.5 7.1 4.2 292.7 287.8 0.00 0.1487523 41.5
2021-03-01 12:40:00 41.8 20.7 4.4 41.8 41.8 2.8 10.5 5.8 34.4 131.5 0.00 0.1500729 41.7
2021-03-01 12:45:00 42.6 20.1 4.3 38.9 42.6 5.8 7.1 4.1 16.8 158.7 0.00 0.1485009 41.9
2021-03-01 12:50:00 42.4 21.0 5.2 38.9 42.4 5.5 8.5 5.6 286.1 137.4 0.00 0.1503308 42.1
2021-03-01 12:55:00 42.2 20.2 4.1 39.9 42.2 3.8 8.7 5.4 311.5 298.3 0.00 0.1434332 42.2
2021-03-01 13:00:00 42.8 20.0 4.4 37.9 42.8 8.1 11.5 5.0 204.8 227.3 0.00 0.1488669 42.4
2021-03-01 13:05:00 43.4 19.0 3.9 43.4 43.4 1.7 8.3 5.1 63.8 249.6 0.00 0.1449011 42.6
2021-03-01 13:10:00 43.6 19.6 4.7 43.6 43.6 2.8 5.1 2.9 252.7 335.0 0.00 0.1434628 42.8
2021-03-01 13:15:00 44.2 18.7 4.2 42.6 44.2 3.5 9.0 5.0 49.0 288.8 0.00 0.1419543 43.0
2021-03-01 13:20:00 44.0 18.7 3.9 40.5 44.0 6.0 10.8 4.5 181.7 244.3 0.00 0.1406700 43.2
2021-03-01 13:25:00 43.3 19.4 4.2 39.5 43.3 6.3 9.0 6.4 232.9 195.9 0.00 0.1391378 43.3
2021-03-01 13:30:00 43.3 20.0 4.8 38.7 43.3 7.8 9.7 7.0 264.9 227.8 0.00 0.1384824 43.5
2021-03-01 13:35:00 44.2 18.5 3.9 41.3 44.2 5.1 10.1 5.9 194.5 261.2 0.00 0.1380298 43.7
2021-03-01 13:40:00 44.2 18.3 3.7 44.2 44.2 2.6 8.0 3.6 274.2 215.1 0.00 0.1355402 43.8
2021-03-01 13:45:00 43.7 20.1 5.3 39.8 43.7 6.5 8.8 4.0 72.8 16.1 0.00 0.1325732 44.0
2021-03-01 13:50:00 43.4 19.0 3.8 38.8 43.4 7.8 11.3 7.3 49.8 51.9 0.00 0.1312486 44.2
2021-03-01 13:55:00 44.8 18.7 4.6 39.4 44.8 10.6 12.1 6.9 16.9 31.9 0.00 0.1304447 44.3
2021-03-01 14:00:00 43.6 19.0 4.0 39.9 43.6 6.2 13.9 10.1 70.4 31.6 0.00 0.1283637 44.5
2021-03-01 14:05:00 44.5 17.9 3.4 40.6 44.5 6.9 9.4 6.1 68.6 99.2 0.00 0.1270879 44.6
2021-03-01 14:10:00 44.3 17.2 2.4 43.1 44.3 3.1 9.7 6.6 31.5 67.3 0.00 0.1248320 44.8
2021-03-01 14:15:00 44.5 17.6 3.1 43.0 44.5 3.5 5.8 3.4 191.9 141.2 0.00 0.1222405 44.9
2021-03-01 14:20:00 46.3 16.4 3.1 46.3 46.3 2.2 3.8 2.5 108.8 171.0 0.00 0.1199813 45.1
2021-03-01 14:25:00 46.6 15.8 2.5 44.5 46.6 4.6 5.1 3.3 242.6 154.7 0.00 0.1173109 45.2
2021-03-01 14:30:00 45.8 14.5 -0.1 41.9 45.8 7.4 10.1 6.5 214.1 266.5 0.00 0.1146859 45.4
2021-03-01 14:35:00 45.4 14.7 -0.0 42.9 45.4 4.9 6.9 4.0 308.0 276.2 0.00 0.1125788 45.5
2021-03-01 14:40:00 45.7 14.8 0.3 41.5 45.7 8.1 10.3 6.8 237.2 272.2 0.00 0.1106272 45.7
2021-03-01 14:45:00 45.8 14.0 -0.7 43.5 45.8 4.7 8.0 5.1 0.5 245.8 0.00 0.1081962 45.8
2021-03-01 14:50:00 45.6 14.4 -0.3 42.8 45.6 5.3 6.9 5.0 335.0 329.0 0.00 0.1060540 45.9
2021-03-01 14:55:00 45.9 14.1 -0.6 42.2 45.9 7.1 7.2 4.8 272.0 313.9 0.00 0.1034863 46.0
2021-03-01 15:00:00 45.6 13.7 -1.3 45.6 45.6 2.4 6.3 3.6 66.6 204.2 0.00 0.0997087 46.2
2021-03-01 15:05:00 45.9 17.1 3.6 43.9 45.9 4.4 4.7 3.3 5.3 96.5 0.00 0.0974150 46.3
2021-03-01 15:10:00 46.3 14.0 -0.4 41.7 46.3 9.0 11.0 6.5 295.0 356.2 0.00 0.0952382 46.4
2021-03-01 15:15:00 46.1 13.6 -1.2 41.5 46.1 9.0 10.8 7.7 177.2 345.6 0.00 0.0929201 46.5
2021-03-01 15:20:00 45.5 13.8 -1.3 40.8 45.5 8.8 11.2 7.5 20.6 337.6 0.00 0.0904603 46.7
2021-03-01 15:25:00 45.2 14.5 -0.5 42.3 45.2 5.3 10.6 6.7 43.7 9.9 0.00 0.0876876 46.8
2021-03-01 15:30:00 45.1 14.1 -1.3 42.1 45.1 5.5 6.5 4.5 97.6 85.4 0.00 0.0841055 46.9
2021-03-01 15:35:00 45.5 14.1 -0.9 43.4 45.5 4.2 5.8 4.2 79.4 96.7 0.00 0.0809477 46.9
2021-03-01 15:40:00 45.6 14.7 0.1 44.6 45.6 3.1 6.3 3.6 122.2 62.0 0.00 0.0776622 47.0
2021-03-01 15:45:00 45.6 14.4 -0.4 44.2 45.6 3.5 8.1 4.6 31.3 126.1 0.00 0.0745721 47.1
2021-03-01 15:50:00 46.1 15.7 1.8 46.1 46.1 2.1 5.6 2.5 1.2 313.6 0.00 0.0714686 47.2
2021-03-01 15:55:00 46.1 15.9 2.2 42.8 46.1 6.3 7.8 5.1 106.6 99.1 0.00 0.0681406 47.3
2021-03-01 16:00:00 45.5 16.4 2.4 42.3 45.5 6.0 7.4 4.7 0.6 98.4 0.00 0.0654955 47.4
2021-03-01 16:05:00 45.4 16.9 3.0 43.7 45.4 3.8 8.8 5.2 177.9 115.5 0.00 0.0626519 47.4
2021-03-01 16:10:00 46.0 15.1 0.9 44.6 46.0 3.5 7.6 4.8 110.0 119.9 0.00 0.0598050 47.5
2021-03-01 16:15:00 45.5 15.4 1.0 45.5 45.5 2.8 4.7 3.0 49.1 47.7 0.00 0.0559036 47.5
2021-03-01 16:20:00 46.1 16.3 2.8 46.1 46.1 1.7 8.5 3.9 59.8 65.7 0.00 0.0530666 47.6
2021-03-01 16:25:00 45.8 15.8 1.8 41.9 45.8 7.4 7.4 6.0 44.3 56.6 0.00 0.0500623 47.6
2021-03-01 16:30:00 45.0 16.6 2.2 42.1 45.0 5.3 10.1 6.6 291.7 40.8 0.00 0.0468839 47.6
2021-03-01 16:35:00 45.1 16.8 2.5 45.1 45.1 2.8 6.3 3.9 112.9 50.5 0.00 0.0439621 47.7
2021-03-01 16:40:00 44.9 17.6 3.4 40.6 44.9 8.0 10.6 7.1 77.3 84.7 0.00 0.0408720 47.7
2021-03-01 16:45:00 44.8 19.0 5.0 41.3 44.8 6.3 9.7 5.0 116.6 85.9 0.00 0.0373247 47.8
2021-03-01 16:50:00 44.6 18.7 4.5 40.6 44.6 7.2 9.7 7.3 152.8 118.4 0.00 0.0349892 47.8
2021-03-01 16:55:00 44.6 18.8 4.6 39.9 44.6 8.7 8.7 5.6 117.7 105.6 0.00 0.0322205 47.8
2021-03-01 17:00:00 44.3 19.1 4.7 40.2 44.3 7.2 8.8 6.0 130.2 121.7 0.00 0.0293228 47.8
2021-03-01 17:05:00 44.1 19.3 4.7 40.3 44.1 6.5 8.8 7.0 150.3 141.0 0.00 0.0266134 47.8
2021-03-01 17:10:00 43.8 19.8 5.1 39.2 43.8 8.0 9.7 6.9 122.3 122.9 0.00 0.0238591 47.8
2021-03-01 17:15:00 43.4 20.2 5.2 39.5 43.4 6.5 10.1 7.3 96.3 116.2 0.00 0.0211951 47.8
2021-03-01 17:20:00 43.3 20.4 5.3 40.8 43.3 4.4 7.4 5.5 120.9 120.3 0.00 0.0183881 47.8
2021-03-01 17:25:00 42.7 20.7 5.2 39.2 42.7 5.6 8.3 6.5 120.5 112.3 0.00 0.0157664 47.8
2021-03-01 17:30:00 42.5 20.9 5.2 38.8 42.5 6.0 8.8 6.3 116.8 119.5 0.00 0.0133047 47.8
2021-03-01 17:35:00 42.2 21.2 5.2 38.3 42.2 6.0 9.2 6.1 122.6 124.7 0.00 0.0106950 47.7
2021-03-01 17:40:00 41.7 21.6 5.2 37.0 41.7 7.2 7.2 5.4 131.9 125.3 0.00 0.0079564 47.7
2021-03-01 17:45:00 41.1 22.2 5.4 38.3 41.1 4.4 7.4 5.3 124.1 131.6 0.00 0.0054455 47.6
2021-03-01 17:50:00 40.3 22.9 5.3 37.8 40.3 3.8 5.6 4.3 137.2 132.7 0.00 0.0022564 47.6
2021-03-01 17:55:00 39.6 23.5 5.2 36.8 39.6 4.0 5.8 4.6 156.7 136.0 0.00 0.0000000 47.6
2021-03-01 18:00:00 38.9 24.1 5.2 36.7 38.9 3.3 4.6 3.9 166.8 136.5 0.00 0.0000000 47.5
2021-03-01 18:05:00 38.3 24.6 5.2 38.3 38.3 2.8 4.0 3.0 151.4 145.2 0.00 0.0000000 47.4
2021-03-01 18:10:00 37.8 25.0 5.1 35.5 37.8 3.3 3.7 2.7 86.0 136.4 0.00 0.0000000 47.4
2021-03-01 18:15:00 37.1 25.6 5.0 34.8 37.1 3.1 4.0 2.9 127.4 132.7 0.00 0.0000000 47.3
2021-03-01 18:20:00 36.3 26.5 5.1 33.9 36.3 3.1 3.8 3.1 123.0 138.1 0.00 0.0000000 47.3
2021-03-01 18:25:00 35.8 26.9 5.0 35.8 35.8 2.8 3.5 3.0 128.6 137.6 0.00 0.0000000 47.2
2021-03-01 18:30:00 35.4 27.3 4.9 35.4 35.4 2.8 3.1 2.8 137.8 131.8 0.00 0.0000000 47.1
2021-03-01 18:35:00 34.9 27.8 4.9 34.9 34.9 2.4 2.8 2.4 115.5 126.2 0.00 0.0000000 47.0
2021-03-01 18:40:00 34.6 28.2 5.0 34.6 34.6 2.6 3.0 2.5 104.2 106.3 0.00 0.0000000 47.0
2021-03-01 18:45:00 34.4 28.4 4.9 34.4 34.4 1.9 3.0 2.2 96.9 104.3 0.00 0.0000000 46.9
2021-03-01 18:50:00 34.3 28.5 4.9 34.3 34.3 1.9 2.4 2.0 107.3 105.3 0.00 0.0000000 46.8
2021-03-01 18:55:00 34.0 28.7 4.8 34.0 34.0 1.3 2.1 1.3 124.1 110.2 0.00 0.0000000 46.7
2021-03-01 19:00:00 33.8 29.0 4.8 33.8 33.8 1.7 1.9 1.6 3.7 138.6 0.00 0.0000000 46.7
2021-03-01 19:05:00 33.7 29.1 4.8 33.7 33.7 1.7 2.4 1.9 189.2 152.1 0.00 0.0000000 46.6
2021-03-01 19:10:00 33.3 29.6 4.9 33.3 33.3 2.4 2.6 1.9 190.8 182.9 0.00 0.0000000 46.5
2021-03-01 19:15:00 33.1 29.7 4.7 30.1 33.1 3.3 3.8 3.2 181.2 171.7 0.00 0.0000000 46.3
2021-03-01 19:20:00 32.8 29.9 4.7 32.8 32.8 3.0 3.5 3.1 214.1 195.5 0.00 0.0000000 46.3
2021-03-01 19:25:00 31.8 30.9 4.5 28.4 31.8 3.5 3.8 3.3 237.6 217.2 0.00 0.0000000 46.2
2021-03-01 19:30:00 32.0 30.7 4.6 28.5 32.0 3.7 4.0 3.4 199.9 210.9 0.00 0.0000000 46.1
2021-03-01 19:35:00 32.0 30.8 4.6 28.2 32.0 3.8 3.8 3.6 216.0 205.2 0.00 0.0000000 46.0
2021-03-01 19:40:00 31.3 31.8 4.6 28.3 31.3 3.1 4.2 3.7 221.2 214.0 0.00 0.0000000 45.9
2021-03-01 19:45:00 31.7 31.1 4.6 28.6 31.7 3.3 3.5 3.0 231.7 197.8 0.00 0.0000000 45.8
2021-03-01 19:50:00 31.2 31.4 4.3 26.9 31.2 4.2 4.4 3.8 189.2 205.0 0.00 0.0000000 45.7
2021-03-01 19:55:00 30.9 32.3 4.7 27.6 30.9 3.3 4.2 3.3 170.4 156.6 0.00 0.0000000 45.5
2021-03-01 20:00:00 30.9 32.3 4.7 27.1 30.9 3.7 3.7 3.1 27.2 148.7 0.00 0.0000000 45.5
2021-03-01 20:05:00 30.9 32.4 4.8 26.6 30.9 4.2 5.3 4.2 173.3 138.3 0.00 0.0000000 45.4
2021-03-01 20:10:00 30.7 32.3 4.4 26.1 30.7 4.4 5.1 4.2 200.5 164.7 0.00 0.0000000 45.3
2021-03-01 20:15:00 29.6 33.5 4.3 26.4 29.6 3.1 4.2 3.5 200.7 195.4 0.00 0.0000000 45.2
2021-03-01 20:20:00 29.4 33.9 4.4 25.0 29.4 4.0 4.0 3.3 195.4 186.6 0.00 0.0000000 45.0
2021-03-01 20:25:00 29.5 33.9 4.5 25.4 29.5 3.8 4.6 3.7 199.6 166.3 0.00 0.0000000 44.9
2021-03-01 20:30:00 29.4 34.2 4.6 29.4 29.4 2.8 4.6 3.2 217.8 199.7 0.00 0.0000000 44.8
2021-03-01 20:35:00 29.6 34.1 4.7 29.6 29.6 2.8 4.4 3.2 196.9 186.1 0.00 0.0000000 44.7
2021-03-01 20:40:00 29.8 34.1 4.9 26.1 29.8 3.5 4.0 3.4 207.5 191.8 0.00 0.0000000 44.6
2021-03-01 20:45:00 29.3 34.6 4.7 29.3 29.3 2.8 4.0 3.1 199.6 217.5 0.00 0.0000000 44.5
2021-03-01 20:50:00 29.1 34.8 4.7 25.1 29.1 3.7 4.2 3.5 219.4 211.9 0.00 0.0000000 44.4
2021-03-01 20:55:00 29.3 34.6 4.7 24.5 29.3 4.4 5.6 4.4 202.3 196.4 0.00 0.0000000 44.3
2021-03-01 21:00:00 29.3 34.7 4.8 29.3 29.3 2.8 5.1 3.3 153.7 187.5 0.00 0.0000000 44.2
2021-03-01 21:05:00 29.6 34.3 4.9 29.6 29.6 2.4 3.3 2.8 155.8 202.5 0.00 0.0000000 44.1
2021-03-01 21:10:00 29.8 33.9 4.8 26.7 29.8 3.1 3.7 3.1 230.9 225.4 0.00 0.0000000 44.0
2021-03-01 21:15:00 30.5 33.1 4.8 30.5 30.5 3.0 4.9 3.0 106.8 195.9 0.00 0.0000000 43.9
2021-03-01 21:20:00 31.0 32.4 4.8 31.0 31.0 2.2 5.5 3.6 170.3 169.7 0.00 0.0000000 43.8
2021-03-01 21:25:00 31.4 31.9 4.9 26.8 31.4 4.6 7.1 3.6 160.1 158.5 0.00 0.0000000 43.7
2021-03-01 21:30:00 31.1 32.1 4.7 27.2 31.1 3.8 5.8 3.8 176.7 146.8 0.00 0.0000000 43.6
2021-03-01 21:35:00 31.5 31.7 4.8 27.2 31.5 4.2 5.8 4.7 142.9 158.3 0.00 0.0000000 43.5
2021-03-01 21:40:00 31.2 32.0 4.8 27.8 31.2 3.5 6.9 5.1 179.0 145.3 0.00 0.0000000 43.4
2021-03-01 21:45:00 30.7 32.7 4.7 27.4 30.7 3.3 5.3 3.7 158.8 155.4 0.00 0.0000000 43.3
2021-03-01 21:50:00 30.5 33.1 4.8 27.1 30.5 3.3 4.0 3.4 147.6 154.8 0.00 0.0000000 43.2
2021-03-01 21:55:00 30.3 33.3 4.7 26.0 30.3 4.0 4.7 3.8 182.8 164.1 0.00 0.0000000 43.1
2021-03-01 22:00:00 30.3 33.1 4.7 25.2 30.3 4.9 5.1 3.9 188.7 169.8 0.00 0.0000000 43.0
2021-03-01 22:05:00 30.4 33.0 4.7 30.4 30.4 2.2 4.6 3.3 203.8 204.1 0.00 0.0000000 42.9
2021-03-01 22:10:00 29.8 33.7 4.6 29.8 29.8 3.0 3.5 2.8 261.1 226.9 0.00 0.0000000 42.8
2021-03-01 22:15:00 30.3 33.4 4.8 30.3 30.3 3.0 4.7 3.3 237.3 214.0 0.00 0.0000000 42.8
2021-03-01 22:20:00 30.5 32.8 4.6 26.1 30.5 4.2 4.9 3.9 209.7 226.6 0.00 0.0000000 42.7
2021-03-01 22:25:00 31.6 31.5 4.7 26.3 31.6 5.3 6.5 5.0 220.1 223.3 0.00 0.0000000 42.6
2021-03-01 22:30:00 32.0 31.0 4.8 27.0 32.0 5.1 7.6 6.0 160.4 210.5 0.00 0.0000000 42.5
2021-03-01 22:35:00 32.0 30.8 4.7 27.7 32.0 4.4 7.2 5.3 212.8 207.8 0.00 0.0000000 42.4
2021-03-01 22:40:00 31.7 31.1 4.6 27.0 31.7 4.7 6.0 5.0 213.9 211.0 0.00 0.0000000 42.3
2021-03-01 22:45:00 30.8 31.8 4.2 30.8 30.8 1.7 5.8 4.0 264.3 225.1 0.00 0.0000000 42.2
2021-03-01 22:50:00 28.6 35.5 4.7 28.6 28.6 2.6 3.7 2.5 279.4 268.2 0.00 0.0000000 42.1
2021-03-01 22:55:00 28.7 35.5 4.7 22.9 28.7 5.3 5.3 3.6 116.9 271.5 0.00 0.0000000 42.1
2021-03-01 23:00:00 30.5 33.0 4.7 24.8 30.5 5.5 5.5 4.2 200.2 228.1 0.00 0.0000000 42.0
2021-03-01 23:05:00 30.1 32.6 4.2 25.3 30.1 4.6 5.5 4.3 116.2 204.6 0.00 0.0000000 41.9
2021-03-01 23:10:00 26.1 38.2 4.0 26.1 26.1 2.4 4.7 3.8 228.5 257.5 0.00 0.0000000 41.8
2021-03-01 23:15:00 23.9 41.6 3.9 18.0 23.9 4.6 4.6 3.3 284.1 256.9 0.00 0.0000000 41.7
2021-03-01 23:20:00 23.2 43.0 4.0 17.0 23.2 4.7 5.6 4.9 289.6 277.9 0.00 0.0000000 41.6
2021-03-01 23:25:00 22.6 44.2 4.0 15.9 22.6 5.1 5.8 5.2 265.2 275.7 0.00 0.0000000 41.5
2021-03-01 23:30:00 22.5 44.4 4.0 14.7 22.5 6.2 6.7 5.7 278.8 274.6 0.00 0.0000000 41.5
2021-03-01 23:35:00 22.5 44.7 4.1 15.2 22.5 5.6 6.9 5.9 282.9 277.8 0.00 0.0000000 41.4
2021-03-01 23:40:00 22.5 44.8 4.2 15.2 22.5 5.6 6.5 5.6 288.7 280.4 0.00 0.0000000 41.3
2021-03-01 23:45:00 23.0 44.0 4.3 15.8 23.0 5.6 7.2 5.7 280.0 285.5 0.00 0.0000000 41.2
2021-03-01 23:50:00 22.7 44.7 4.4 15.0 22.7 6.2 6.5 5.8 272.9 280.3 0.00 0.0000000 41.1
2021-03-01 23:55:00 22.9 44.7 4.5 15.7 22.9 5.6 7.2 5.9 273.7 269.9 0.00 0.0000000 41.1
2021-03-02 00:00:00 23.0 44.7 4.7 16.2 23.0 5.3 6.2 5.5 276.7 275.2 0.00 0.0000000 41.0
2021-03-02 00:05:00 23.8 45.2 5.6 17.0 23.8 5.5 6.3 5.7 236.1 262.7 0.00 0.0000000 40.9
2021-03-02 00:10:00 24.4 47.0 7.0 17.0 24.4 6.2 6.7 6.1 261.7 263.4 0.00 0.0000000 40.8
2021-03-02 00:15:00 24.7 50.4 8.9 18.8 24.7 4.7 6.3 5.4 257.4 251.7 0.00 0.0000000 40.7
2021-03-02 00:20:00 27.5 50.1 11.3 20.2 27.5 6.9 9.2 6.4 218.8 227.5 0.00 0.0000000 40.7
2021-03-02 00:25:00 30.2 46.2 11.9 21.7 30.2 9.6 10.6 8.3 248.5 230.2 0.00 0.0000000 40.6
2021-03-02 00:30:00 30.7 45.6 12.2 23.1 30.7 8.3 9.7 8.5 243.3 237.8 0.00 0.0000000 40.5
2021-03-02 00:35:00 31.1 45.8 12.6 22.6 31.1 9.9 10.3 9.2 235.3 230.2 0.00 0.0000000 40.4
2021-03-02 00:40:00 31.3 45.8 12.8 23.5 31.3 8.7 11.3 8.6 239.3 236.2 0.00 0.0000000 40.4
2021-03-02 00:45:00 31.1 46.8 13.1 23.1 31.1 9.2 11.5 8.8 242.5 233.6 0.00 0.0000000 40.3
2021-03-02 00:50:00 31.5 46.6 13.4 24.2 31.5 8.0 12.1 9.4 238.3 232.4 0.00 0.0000000 40.2
2021-03-02 00:55:00 31.2 47.6 13.6 22.5 31.2 10.5 11.2 9.1 232.8 233.1 0.00 0.0000000 40.1
2021-03-02 01:00:00 31.3 47.2 13.5 23.9 31.3 8.1 12.2 9.5 234.3 229.2 0.00 0.0000000 40.0
2021-03-02 01:05:00 31.2 48.0 13.7 24.2 31.2 7.4 12.4 8.6 231.1 236.3 0.00 0.0000000 40.0
2021-03-02 01:10:00 31.1 48.7 14.0 23.6 31.1 8.1 10.5 8.5 250.0 238.1 0.00 0.0000000 39.9
2021-03-02 01:15:00 31.1 49.2 14.2 24.1 31.1 7.4 11.0 8.8 251.2 239.5 0.00 0.0000000 39.8
2021-03-02 01:20:00 30.6 50.7 14.5 23.6 30.6 7.2 9.2 7.3 240.1 239.0 0.00 0.0000000 39.8
2021-03-02 01:25:00 31.0 49.9 14.5 24.2 31.0 7.1 10.3 8.9 232.5 238.4 0.00 0.0000000 39.7
2021-03-02 01:30:00 31.2 49.8 14.6 22.3 31.2 10.8 12.2 9.2 245.5 239.7 0.00 0.0000000 39.7
2021-03-02 01:35:00 31.2 49.8 14.6 22.6 31.2 10.1 11.3 9.8 235.5 237.3 0.00 0.0000000 39.6
2021-03-02 01:40:00 31.3 49.6 14.6 23.0 31.3 9.7 12.1 10.2 235.2 236.5 0.00 0.0000000 39.5
2021-03-02 01:45:00 31.2 49.9 14.7 22.4 31.2 10.6 11.0 9.6 233.3 237.1 0.00 0.0000000 39.5
2021-03-02 01:50:00 31.1 50.4 14.8 22.6 31.1 9.9 11.7 9.7 235.0 236.3 0.00 0.0000000 39.4
2021-03-02 01:55:00 31.1 50.4 14.8 22.1 31.1 11.0 11.7 9.6 247.5 239.8 0.00 0.0000000 39.4
2021-03-02 02:00:00 31.6 49.5 14.9 22.7 31.6 11.0 13.0 11.5 210.0 233.7 0.00 0.0000000 39.3
2021-03-02 02:05:00 31.3 51.0 15.2 22.5 31.3 10.6 13.0 10.2 234.5 236.5 0.00 0.0000000 39.3
2021-03-02 02:10:00 31.1 51.3 15.1 21.8 31.1 11.3 14.6 10.1 232.7 231.3 0.00 0.0000000 39.2
2021-03-02 02:15:00 30.8 51.3 14.9 22.0 30.8 10.5 14.9 10.8 229.5 233.5 0.00 0.0000000 39.1
2021-03-02 02:20:00 30.8 51.2 14.9 20.2 30.8 14.4 14.4 11.7 230.4 230.6 0.00 0.0000000 39.1
2021-03-02 02:25:00 30.7 51.5 14.9 21.1 30.7 11.9 14.7 10.8 224.6 230.0 0.00 0.0000000 39.0
2021-03-02 02:30:00 30.7 51.0 14.7 20.7 30.7 13.0 14.7 11.9 243.4 230.9 0.00 0.0000000 39.0
2021-03-02 02:35:00 30.2 52.0 14.7 22.1 30.2 9.0 12.8 10.6 231.1 233.8 0.00 0.0000000 38.9
2021-03-02 02:40:00 30.2 52.4 14.9 21.0 30.2 11.0 16.9 11.3 223.6 234.1 0.00 0.0000000 38.9
2021-03-02 02:45:00 30.1 53.3 15.2 18.7 30.1 16.2 16.2 11.3 227.2 232.3 0.00 0.0000000 38.8
2021-03-02 02:50:00 30.6 52.4 15.2 21.7 30.6 10.5 16.9 12.8 236.3 231.8 0.00 0.0000000 38.8
2021-03-02 02:55:00 30.6 52.6 15.3 19.6 30.6 15.5 18.1 12.8 232.5 226.3 0.00 0.0000000 38.7
2021-03-02 03:00:00 30.6 52.8 15.4 21.4 30.6 11.2 16.9 12.3 225.6 229.0 0.00 0.0000000 38.7
2021-03-02 03:05:00 30.6 53.2 15.6 20.2 30.6 14.0 15.3 12.4 228.4 229.8 0.00 0.0000000 38.6
2021-03-02 03:10:00 30.6 53.0 15.5 21.0 30.6 12.1 15.8 12.4 230.7 230.4 0.00 0.0000000 38.6
2021-03-02 03:15:00 30.9 51.3 15.0 20.3 30.9 14.7 18.0 14.2 249.1 230.1 0.00 0.0000000 38.5
2021-03-02 03:20:00 31.1 50.3 14.8 19.7 31.1 16.9 19.2 14.8 238.0 230.9 0.00 0.0000000 38.5
2021-03-02 03:25:00 31.2 49.9 14.7 19.2 31.2 19.0 20.1 15.6 229.8 234.4 0.00 0.0000000 38.5
2021-03-02 03:30:00 31.4 49.8 14.7 21.5 31.4 13.1 18.1 14.8 242.4 229.0 0.00 0.0000000 38.4
2021-03-02 03:35:00 31.1 50.5 14.9 20.6 31.1 14.6 16.7 14.3 230.6 231.7 0.00 0.0000000 38.4
2021-03-02 03:40:00 31.0 50.4 14.7 19.5 31.0 17.1 17.8 13.9 234.5 233.3 0.00 0.0000000 38.3
2021-03-02 03:45:00 31.2 50.0 14.8 20.3 31.2 15.6 17.4 14.6 243.0 233.4 0.00 0.0000000 38.3
2021-03-02 03:50:00 31.1 50.3 14.8 19.6 31.1 17.2 17.2 14.1 240.1 232.6 0.00 0.0000000 38.3
2021-03-02 03:55:00 31.2 50.0 14.7 21.8 31.2 12.1 16.4 12.8 246.5 235.1 0.00 0.0000000 38.2
2021-03-02 04:00:00 31.2 50.0 14.7 21.0 31.2 13.7 16.2 12.7 232.0 233.6 0.00 0.0000000 38.2
2021-03-02 04:05:00 31.2 49.9 14.7 21.5 31.2 12.6 16.7 12.8 224.2 231.3 0.00 0.0000000 38.1
2021-03-02 04:10:00 31.1 50.3 14.7 22.4 31.1 10.3 14.2 11.6 233.0 236.2 0.00 0.0000000 38.1
2021-03-02 04:15:00 30.8 50.9 14.7 22.8 30.8 8.8 15.3 10.9 250.9 233.6 0.00 0.0000000 38.0
2021-03-02 04:20:00 30.7 51.3 14.8 22.3 30.7 9.6 13.7 10.5 225.3 229.7 0.00 0.0000000 38.0
2021-03-02 04:25:00 30.7 50.9 14.7 21.5 30.7 11.2 12.4 10.3 236.8 235.9 0.00 0.0000000 38.0
2021-03-02 04:30:00 30.3 51.7 14.6 22.1 30.3 9.0 11.3 9.5 227.0 236.1 0.00 0.0000000 37.9
2021-03-02 04:35:00 30.2 52.4 14.9 21.3 30.2 10.5 11.7 9.8 210.6 233.0 0.00 0.0000000 37.9
2021-03-02 04:40:00 30.2 53.0 15.1 21.8 30.2 9.6 12.1 10.2 228.7 234.2 0.00 0.0000000 37.9
2021-03-02 04:45:00 30.1 53.5 15.2 22.7 30.1 7.6 11.3 8.8 240.6 245.7 0.00 0.0000000 37.8
2021-03-02 04:50:00 29.9 54.1 15.3 20.5 29.9 11.2 11.2 8.9 246.5 239.7 0.00 0.0000000 37.8
2021-03-02 04:55:00 29.9 53.7 15.1 22.3 29.9 8.0 10.8 8.6 259.3 241.5 0.00 0.0000000 37.7
2021-03-02 05:00:00 29.8 54.1 15.2 22.1 29.8 8.0 9.9 8.3 239.7 244.5 0.00 0.0000000 37.7
2021-03-02 05:05:00 29.3 55.4 15.3 22.7 29.3 6.3 9.2 7.6 235.6 240.8 0.00 0.0000000 37.7
2021-03-02 05:10:00 29.3 55.2 15.2 21.5 29.3 8.1 9.4 7.8 242.4 246.4 0.00 0.0000000 37.6
2021-03-02 05:15:00 29.5 54.7 15.2 21.7 29.5 8.1 11.0 8.4 255.0 238.3 0.00 0.0000000 37.6
2021-03-02 05:20:00 29.8 54.3 15.2 22.6 29.8 7.2 11.0 8.3 203.5 241.2 0.00 0.0000000 37.6
2021-03-02 05:25:00 29.4 54.2 14.9 23.0 29.4 6.2 9.0 7.1 239.0 242.2 0.00 0.0000000 37.5
2021-03-02 05:30:00 29.0 55.0 14.9 22.4 29.0 6.3 8.1 6.3 261.3 245.0 0.00 0.0000000 37.5
2021-03-02 05:35:00 28.8 55.5 14.9 22.4 28.8 6.0 7.6 6.4 263.3 259.2 0.00 0.0000000 37.5
2021-03-02 05:40:00 28.8 55.6 14.9 21.4 28.8 7.2 8.8 6.9 254.5 259.1 0.00 0.0000000 37.4
2021-03-02 05:45:00 28.9 54.9 14.7 23.0 28.9 5.5 8.7 7.1 242.4 261.9 0.00 0.0000000 37.4
2021-03-02 05:50:00 28.6 54.9 14.4 22.6 28.6 5.5 8.8 6.6 277.2 271.4 0.00 0.0000000 37.3
2021-03-02 05:55:00 27.7 57.1 14.4 20.6 27.7 6.5 7.1 6.0 272.4 268.7 0.00 0.0000000 37.3
2021-03-02 06:00:00 27.9 55.3 13.9 21.1 27.9 6.2 7.1 6.2 270.6 258.9 0.00 0.0000000 37.3
2021-03-02 06:05:00 28.0 54.1 13.6 22.0 28.0 5.5 8.0 6.5 231.3 259.7 0.00 0.0000000 37.3
2021-03-02 06:10:00 28.3 52.6 13.1 21.6 28.3 6.2 7.6 6.6 256.4 253.5 0.00 0.0000000 37.2
2021-03-02 06:15:00 28.0 52.8 13.0 22.5 28.0 4.9 7.4 5.9 271.9 270.6 0.00 0.0000000 37.2

Data is courtesy of the NM Climate Center. DO NOT USE IN LEGAL PROCEEDINGS.